createdAt,value
2023-01-21T00:00:10.285Z,3.70
2023-01-21T00:02:41.042Z,3.47
2023-01-21T00:05:12.500Z,2.63
2023-01-21T00:07:43.118Z,2.88
2023-01-21T00:10:14.536Z,3.22
2023-01-21T00:12:45.371Z,2.25
2023-01-21T00:15:18.675Z,2.35
2023-01-21T00:17:49.274Z,2.22
2023-01-21T00:20:20.418Z,2.42
2023-01-21T00:22:52.193Z,3.20
2023-01-21T00:25:22.747Z,2.90
2023-01-21T00:27:53.452Z,2.70
2023-01-21T00:30:26.842Z,2.75
2023-01-21T00:32:57.470Z,3.65
2023-01-21T00:35:28.074Z,4.00
2023-01-21T00:37:58.726Z,4.13
2023-01-21T00:40:30.254Z,4.78
2023-01-21T00:43:00.962Z,4.15
2023-01-21T00:45:34.162Z,3.67
2023-01-21T00:48:04.788Z,4.05
2023-01-21T00:50:35.352Z,4.40
2023-01-21T00:53:05.894Z,4.70
2023-01-21T00:55:36.421Z,5.03
2023-01-21T00:58:07.002Z,4.60
2023-01-21T01:00:40.114Z,3.88
2023-01-21T01:03:10.624Z,3.38
2023-01-21T01:05:41.144Z,4.30
2023-01-21T01:08:12.098Z,4.50
2023-01-21T01:10:42.653Z,4.47
2023-01-21T01:13:13.251Z,4.15
2023-01-21T01:15:47.735Z,4.45
2023-01-21T01:18:18.404Z,5.73
2023-01-21T01:20:48.897Z,6.95
2023-01-21T01:23:19.808Z,7.07
2023-01-21T01:25:58.344Z,7.57
2023-01-21T01:28:29.316Z,7.43
2023-01-21T01:31:03.309Z,6.53
2023-01-21T01:33:33.967Z,6.60
2023-01-21T01:38:48.086Z,5.30
2023-01-21T01:41:20.421Z,5.72
2023-01-21T01:43:57.691Z,7.63
2023-01-21T01:46:29.873Z,7.40
2023-01-21T01:49:05.763Z,7.55
2023-01-21T01:51:47.602Z,11.10
2023-01-21T01:54:23.019Z,10.15
2023-01-21T01:56:58.199Z,11.13
2023-01-21T01:59:29.733Z,11.55
2023-01-21T02:02:03.654Z,12.07
2023-01-21T02:04:40.857Z,11.07
2023-01-21T02:07:14.655Z,9.60
2023-01-21T02:09:45.303Z,12.55
2023-01-21T02:12:16.423Z,10.88
2023-01-21T02:14:48.996Z,10.35
2023-01-21T02:17:50.545Z,8.82
2023-01-21T02:20:53.269Z,8.65
2023-01-21T02:23:41.673Z,11.98
2023-01-21T02:26:42.770Z,13.57
2023-01-21T02:29:44.794Z,11.77
2023-01-21T02:32:36.753Z,11.85
2023-01-21T02:35:19.579Z,11.45
2023-01-21T02:38:00.003Z,12.15
2023-01-21T02:40:37.851Z,12.68
2023-01-21T02:43:15.493Z,9.15
2023-01-21T02:45:51.504Z,9.00
2023-01-21T02:48:26.198Z,9.10
2023-01-21T02:50:59.822Z,9.23
2023-01-21T02:53:32.952Z,6.85
2023-01-21T02:56:08.313Z,7.75
2023-01-21T02:58:42.869Z,7.25
2023-01-21T03:01:24.211Z,7.57
2023-01-21T03:04:10.903Z,8.65
2023-01-21T03:06:53.714Z,8.73
2023-01-21T03:09:28.327Z,6.80
2023-01-21T03:12:30.055Z,5.27
2023-01-21T03:15:17.869Z,6.28
2023-01-21T03:17:56.110Z,7.05
2023-01-21T03:20:30.366Z,7.40
2023-01-21T03:23:09.531Z,8.68
2023-01-21T03:25:41.999Z,11.13
2023-01-21T03:28:16.424Z,10.63
2023-01-21T03:30:51.469Z,11.93
2023-01-21T03:33:23.266Z,11.57
2023-01-21T03:35:56.980Z,10.25
2023-01-21T03:38:35.954Z,10.60
2023-01-21T03:41:12.200Z,10.77
2023-01-21T03:43:43.019Z,10.15
2023-01-21T03:46:21.532Z,12.93
2023-01-21T03:48:57.993Z,12.10
2023-01-21T03:51:35.582Z,10.35
2023-01-21T03:54:09.043Z,10.95
2023-01-21T03:56:39.787Z,10.80
2023-01-21T03:59:10.230Z,11.88
2023-01-21T04:01:41.937Z,12.80
2023-01-21T04:04:13.073Z,9.57
2023-01-21T04:06:43.830Z,11.15
2023-01-21T04:09:16.961Z,8.65
2023-01-21T04:11:47.546Z,8.32
2023-01-21T04:14:18.037Z,8.57
2023-01-21T04:16:48.622Z,8.02
2023-01-21T04:19:19.124Z,7.13
2023-01-21T04:21:49.707Z,5.55
2023-01-21T04:24:22.873Z,5.53
2023-01-21T04:26:53.939Z,5.20
2023-01-21T04:29:24.479Z,6.28
2023-01-21T04:31:55.050Z,5.35
2023-01-21T04:34:25.512Z,5.85
2023-01-21T04:36:56.212Z,4.45
2023-01-21T04:39:29.373Z,5.70
2023-01-21T04:42:00.004Z,5.00
2023-01-21T04:44:30.870Z,6.68
2023-01-21T04:47:01.417Z,5.38
2023-01-21T04:49:31.896Z,4.63
2023-01-21T04:52:02.605Z,4.53
2023-01-21T04:54:35.701Z,3.20
2023-01-21T04:57:06.299Z,5.18
2023-01-21T04:59:36.864Z,5.07
2023-01-21T05:02:07.493Z,5.25
2023-01-21T05:04:38.207Z,4.47
2023-01-21T05:07:09.096Z,3.78
2023-01-21T05:09:42.198Z,3.72
2023-01-21T05:12:13.306Z,4.35
2023-01-21T05:14:44.328Z,5.13
2023-01-21T05:17:15.027Z,4.30
2023-01-21T05:19:45.497Z,4.55
2023-01-21T05:22:16.010Z,1.80
2023-01-21T05:24:49.221Z,5.40
2023-01-21T05:27:20.193Z,2.83
2023-01-21T05:29:51.007Z,2.95
2023-01-21T05:32:21.681Z,1.90
2023-01-21T05:34:52.270Z,2.30
2023-01-21T05:37:23.048Z,2.30
2023-01-21T05:39:56.457Z,2.00
2023-01-21T05:42:27.167Z,1.60
2023-01-21T05:44:57.780Z,1.75
2023-01-21T05:47:28.298Z,2.63
2023-01-21T05:49:58.812Z,4.22
2023-01-21T05:52:29.327Z,5.43
2023-01-21T05:55:03.061Z,1.88
2023-01-21T05:57:34.831Z,1.52
2023-01-21T06:00:05.401Z,1.80
2023-01-21T06:02:36.280Z,1.17
2023-01-21T06:05:07.448Z,1.10
2023-01-21T06:07:38.059Z,1.50
2023-01-21T06:10:12.720Z,1.40
2023-01-21T06:12:43.182Z,1.60
2023-01-21T06:15:14.609Z,1.35
2023-01-21T06:17:47.281Z,1.77
2023-01-21T06:20:18.514Z,1.40
2023-01-21T06:22:49.864Z,1.20
2023-01-21T06:25:23.017Z,1.52
2023-01-21T06:27:53.811Z,1.55
2023-01-21T06:30:24.629Z,1.85
2023-01-21T06:32:55.369Z,0.95
2023-01-21T06:35:26.099Z,2.08
2023-01-21T06:37:56.796Z,1.33
2023-01-21T06:40:29.861Z,0.82
2023-01-21T06:43:00.473Z,1.10
2023-01-21T06:45:31.313Z,1.33
2023-01-21T06:48:01.812Z,1.13
2023-01-21T06:50:32.468Z,1.05
2023-01-21T06:53:03.080Z,1.58
2023-01-21T06:55:36.177Z,1.58
2023-01-21T06:58:06.905Z,1.60
2023-01-21T07:00:37.405Z,2.50
2023-01-21T07:03:07.979Z,1.27
2023-01-21T07:05:38.608Z,2.85
2023-01-21T07:08:09.335Z,2.20
2023-01-21T07:10:42.416Z,3.28
2023-01-21T07:13:13.078Z,1.90
2023-01-21T07:15:43.663Z,1.30
2023-01-21T07:18:14.324Z,1.70
2023-01-21T07:20:45.195Z,1.20
2023-01-21T07:23:15.959Z,1.33
2023-01-21T07:25:49.017Z,1.35
2023-01-21T07:28:19.935Z,1.23
2023-01-21T07:30:50.644Z,1.17
2023-01-21T07:33:21.368Z,1.85
2023-01-21T07:35:52.002Z,1.65
2023-01-21T07:38:22.659Z,1.70
2023-01-21T07:40:55.994Z,1.45
2023-01-21T07:43:27.594Z,1.27
2023-01-21T07:46:00.131Z,1.00
2023-01-21T07:48:31.046Z,4.40
2023-01-21T07:51:02.292Z,1.45
2023-01-21T07:53:32.899Z,0.90
2023-01-21T07:56:10.917Z,1.40
2023-01-21T07:58:41.870Z,1.30
2023-01-21T08:01:13.263Z,1.20
2023-01-21T08:03:43.830Z,1.20
2023-01-21T08:06:15.596Z,1.38
2023-01-21T08:08:46.096Z,1.50
2023-01-21T08:11:19.316Z,1.85
2023-01-21T08:13:51.847Z,1.90
2023-01-21T08:16:22.564Z,2.22
2023-01-21T08:18:53.528Z,1.55
2023-01-21T08:21:24.095Z,1.80
2023-01-21T08:23:54.771Z,2.30
2023-01-21T08:26:27.911Z,2.38
2023-01-21T08:28:58.693Z,2.28
2023-01-21T08:31:29.302Z,2.58
2023-01-21T08:34:01.043Z,2.00
2023-01-21T08:36:31.643Z,3.00
2023-01-21T08:39:02.164Z,1.75
2023-01-21T08:41:36.070Z,1.60
2023-01-21T08:44:06.616Z,2.42
2023-01-21T08:46:37.645Z,1.90
2023-01-21T08:49:08.491Z,3.40
2023-01-21T08:51:39.097Z,2.03
2023-01-21T08:54:10.729Z,2.65
2023-01-21T08:56:43.910Z,3.20
2023-01-21T08:59:14.536Z,5.75
2023-01-21T09:01:45.655Z,2.95
2023-01-21T09:04:16.090Z,2.20
2023-01-21T09:06:46.783Z,2.42
2023-01-21T09:09:17.205Z,2.53
2023-01-21T09:11:50.468Z,2.53
2023-01-21T09:14:21.705Z,2.28
2023-01-21T09:16:52.734Z,2.45
2023-01-21T09:19:24.108Z,1.60
2023-01-21T09:21:55.856Z,1.52
2023-01-21T09:24:26.645Z,1.80
2023-01-21T09:26:59.816Z,2.00
2023-01-21T09:29:30.778Z,3.28
2023-01-21T09:32:01.385Z,1.58
2023-01-21T09:34:34.696Z,1.77
2023-01-21T09:37:06.243Z,2.50
2023-01-21T09:39:36.733Z,2.53
2023-01-21T09:42:21.413Z,2.08
2023-01-21T09:44:55.743Z,1.85
2023-01-21T09:47:29.431Z,1.88
2023-01-21T09:50:06.000Z,2.38
2023-01-21T09:52:41.958Z,1.70
2023-01-21T09:55:19.761Z,1.70
2023-01-21T09:58:17.540Z,1.70
2023-01-21T10:00:52.997Z,1.95
2023-01-21T10:03:31.850Z,2.13
2023-01-21T10:06:13.571Z,2.42
2023-01-21T10:08:59.051Z,2.63
2023-01-21T10:11:40.741Z,3.15
2023-01-21T10:14:28.032Z,2.70
2023-01-21T10:17:07.653Z,2.15
2023-01-21T10:19:42.240Z,1.48
2023-01-21T10:22:17.412Z,1.90
2023-01-21T10:24:52.581Z,2.45
2023-01-21T10:27:25.402Z,1.77
2023-01-21T10:30:07.471Z,1.83
2023-01-21T10:32:42.539Z,2.88
2023-01-21T10:35:21.225Z,2.22
2023-01-21T10:37:59.409Z,2.20
2023-01-21T10:40:47.387Z,1.77
2023-01-21T10:43:26.971Z,2.03
2023-01-21T10:46:14.175Z,2.40
2023-01-21T10:48:52.000Z,3.08
2023-01-21T10:51:28.043Z,2.65
2023-01-21T10:54:03.502Z,2.63
2023-01-21T10:56:45.405Z,2.38
2023-01-21T10:59:19.673Z,2.78
2023-01-21T11:01:55.265Z,3.38
2023-01-21T11:04:30.120Z,2.88
2023-01-21T11:07:04.271Z,3.53
2023-01-21T11:09:38.667Z,2.53
2023-01-21T11:12:09.476Z,2.90
2023-01-21T11:14:39.937Z,4.55
2023-01-21T11:17:13.520Z,3.47
2023-01-21T11:19:44.035Z,3.35
2023-01-21T11:22:26.330Z,3.53
2023-01-21T11:24:56.840Z,2.92
2023-01-21T11:27:37.893Z,2.90
2023-01-21T11:30:50.192Z,3.67
2023-01-21T11:33:30.899Z,3.45
2023-01-21T11:36:13.581Z,2.50
2023-01-21T11:38:45.292Z,3.20
2023-01-21T11:41:23.238Z,2.92
2023-01-21T11:43:58.719Z,3.08
2023-01-21T11:46:33.286Z,3.42
2023-01-21T11:49:28.940Z,7.32
2023-01-21T11:52:18.785Z,3.10
2023-01-21T11:54:49.837Z,5.57
2023-01-21T11:57:27.048Z,2.50
2023-01-21T12:00:01.743Z,2.80
2023-01-21T12:02:47.177Z,5.85
2023-01-21T12:05:28.600Z,5.70
2023-01-21T12:07:59.912Z,2.70
2023-01-21T12:10:34.292Z,1.90
2023-01-21T12:13:20.518Z,3.58
2023-01-21T12:16:21.900Z,2.65
2023-01-21T12:19:16.896Z,2.80
2023-01-21T12:22:01.144Z,2.97
2023-01-21T12:24:47.877Z,2.45
2023-01-21T12:27:27.562Z,3.92
2023-01-21T12:30:09.670Z,3.10
2023-01-21T12:32:45.872Z,2.72
2023-01-21T12:35:22.996Z,2.55
2023-01-21T12:38:00.157Z,3.97
2023-01-21T12:40:35.034Z,2.92
2023-01-21T12:43:13.396Z,3.78
2023-01-21T12:45:49.614Z,5.50
2023-01-21T12:48:28.707Z,3.58
2023-01-21T12:51:03.678Z,3.13
2023-01-21T12:53:44.210Z,5.82
2023-01-21T12:56:27.005Z,3.40
2023-01-21T12:59:01.302Z,3.00
2023-01-21T13:01:47.830Z,3.90
2023-01-21T13:04:31.110Z,2.50
2023-01-21T13:07:07.790Z,3.00
2023-01-21T13:09:49.472Z,3.85
2023-01-21T13:12:24.731Z,4.20
2023-01-21T13:15:01.338Z,3.72
2023-01-21T13:17:36.508Z,6.97
2023-01-21T13:20:17.802Z,6.72
2023-01-21T13:22:54.885Z,6.47
2023-01-21T13:25:35.427Z,5.97
2023-01-21T13:28:13.019Z,4.75
2023-01-21T13:30:48.919Z,5.00
2023-01-21T13:33:35.008Z,3.80
2023-01-21T13:36:27.636Z,5.22
2023-01-21T13:39:05.792Z,5.30
2023-01-21T13:42:02.874Z,5.53
2023-01-21T13:44:52.656Z,5.53
2023-01-21T13:47:38.188Z,7.03
2023-01-21T13:50:26.319Z,7.85
2023-01-21T13:53:26.419Z,7.95
2023-01-21T13:56:10.438Z,10.77
2023-01-21T13:58:52.281Z,5.78
2023-01-21T14:01:28.945Z,5.90
2023-01-21T14:04:06.011Z,4.57
2023-01-21T14:06:43.450Z,2.50
2023-01-21T14:09:22.475Z,3.72
2023-01-21T14:12:01.355Z,6.90
2023-01-21T14:14:58.315Z,6.90
2023-01-21T14:17:59.726Z,4.32
2023-01-21T14:20:51.616Z,4.45
2023-01-21T14:23:54.954Z,4.60
2023-01-21T14:26:36.642Z,4.93
2023-01-21T14:29:18.310Z,9.82
2023-01-21T14:31:56.307Z,4.90
2023-01-21T14:34:33.075Z,4.45
2023-01-21T14:37:10.452Z,4.75
2023-01-21T14:39:49.960Z,4.45
2023-01-21T14:42:26.613Z,4.68
2023-01-21T14:45:08.243Z,2.72
2023-01-21T14:47:55.493Z,2.70
2023-01-21T14:50:53.356Z,2.00
2023-01-21T14:53:27.538Z,4.25
2023-01-21T14:56:15.208Z,4.22
2023-01-21T14:58:49.752Z,4.45
2023-01-21T15:01:43.441Z,5.30
2023-01-21T15:04:28.924Z,3.80
2023-01-21T15:07:02.413Z,3.70
2023-01-21T15:09:36.679Z,4.60
2023-01-21T15:12:10.897Z,6.60
2023-01-21T15:14:42.832Z,6.03
2023-01-21T15:17:43.088Z,3.90
2023-01-21T15:20:43.472Z,6.28
2023-01-21T15:23:30.438Z,4.22
2023-01-21T15:26:09.149Z,1.95
2023-01-21T15:28:47.676Z,4.30
2023-01-21T15:31:43.303Z,2.50
2023-01-21T15:34:20.207Z,4.13
2023-01-21T15:36:57.420Z,3.28
2023-01-21T15:39:35.837Z,2.40
2023-01-21T15:42:22.647Z,3.00
2023-01-21T15:45:08.878Z,2.55
2023-01-21T15:47:53.730Z,3.70
2023-01-21T15:50:25.925Z,3.00
2023-01-21T15:53:23.925Z,3.55
2023-01-21T15:56:13.646Z,3.05
2023-01-21T15:58:57.255Z,4.82
2023-01-21T16:01:36.112Z,5.10
2023-01-21T16:04:24.428Z,4.28
2023-01-21T16:07:09.602Z,3.30
2023-01-21T16:09:55.236Z,2.28
2023-01-21T16:12:39.640Z,3.08
2023-01-21T16:15:19.537Z,2.92
2023-01-21T16:18:09.665Z,3.40
2023-01-21T16:20:44.542Z,3.63
2023-01-21T16:23:18.944Z,2.92
2023-01-21T16:25:51.133Z,1.80
2023-01-21T16:28:24.603Z,2.70
2023-01-21T16:30:59.370Z,3.40
2023-01-21T16:33:30.032Z,2.35
2023-01-21T16:36:05.181Z,3.17
2023-01-21T16:38:37.564Z,3.20
2023-01-21T16:41:25.911Z,2.30
2023-01-21T16:44:02.323Z,2.20
2023-01-21T16:46:37.737Z,3.08
2023-01-21T16:51:43.121Z,2.20
2023-01-21T16:54:31.101Z,2.70
2023-01-21T16:57:03.423Z,3.05
2023-01-21T16:59:42.920Z,2.85
2023-01-21T17:02:21.921Z,2.08
2023-01-21T17:04:53.071Z,3.35
2023-01-21T17:07:25.897Z,2.58
2023-01-21T17:10:01.606Z,2.92
2023-01-21T17:12:36.439Z,2.67
2023-01-21T17:15:20.733Z,3.88
2023-01-21T17:17:51.893Z,3.08
2023-01-21T17:20:45.908Z,2.67
2023-01-21T17:23:20.505Z,4.35
2023-01-21T17:25:56.466Z,3.42
2023-01-21T17:28:34.626Z,2.20
2023-01-21T17:31:25.975Z,3.50
2023-01-21T17:34:24.073Z,2.72
2023-01-21T17:36:56.470Z,2.83
2023-01-21T17:39:58.070Z,2.05
2023-01-21T17:42:33.832Z,3.25
2023-01-21T17:45:07.276Z,2.80
2023-01-21T17:48:06.672Z,1.77
2023-01-21T17:50:34.520Z,2.78
2023-01-21T17:53:07.463Z,2.80
2023-01-21T17:55:39.681Z,1.77
2023-01-21T17:58:46.437Z,2.95
2023-01-21T18:03:50.703Z,2.08
2023-01-21T18:06:25.603Z,2.03
2023-01-21T18:08:56.678Z,3.33
2023-01-21T18:11:28.606Z,2.20
2023-01-21T18:13:59.612Z,4.07
2023-01-21T18:16:30.654Z,3.65
2023-01-21T18:19:04.217Z,3.75
2023-01-21T18:21:35.041Z,4.68
2023-01-21T18:24:05.836Z,4.40
2023-01-21T18:26:38.883Z,3.17
2023-01-21T18:29:09.507Z,2.92
2023-01-21T18:31:40.576Z,3.15
2023-01-21T18:34:15.047Z,3.50
2023-01-21T18:36:45.748Z,4.32
2023-01-21T18:39:19.226Z,3.08
2023-01-21T18:41:50.311Z,2.58
2023-01-21T18:44:21.395Z,3.58
2023-01-21T18:46:52.069Z,2.58
2023-01-21T18:49:27.987Z,2.72
2023-01-21T18:51:59.131Z,1.80
2023-01-21T18:54:29.970Z,2.13
2023-01-21T18:57:00.688Z,2.95
2023-01-21T18:59:31.955Z,3.65
2023-01-21T19:02:03.164Z,3.47
2023-01-21T19:04:36.829Z,2.33
2023-01-21T19:07:12.167Z,3.10
2023-01-21T19:09:46.342Z,2.30
2023-01-21T19:12:18.824Z,2.42
2023-01-21T19:14:50.180Z,2.63
2023-01-21T19:17:26.138Z,3.30
2023-01-21T19:20:00.489Z,2.25
2023-01-21T19:22:31.832Z,2.47
2023-01-21T19:25:02.536Z,2.15
2023-01-21T19:27:38.820Z,2.90
2023-01-21T19:30:21.626Z,1.67
2023-01-21T19:32:53.504Z,1.77
2023-01-21T19:35:32.088Z,1.63
2023-01-21T19:38:03.261Z,2.22
2023-01-21T19:40:36.314Z,1.67
2023-01-21T19:43:07.299Z,1.35
2023-01-21T19:45:37.895Z,1.10
2023-01-21T19:48:14.817Z,1.38
2023-01-21T19:50:48.441Z,1.20
2023-01-21T19:53:22.571Z,1.20
2023-01-21T19:55:53.420Z,1.30
2023-01-21T19:58:27.222Z,1.38
2023-01-21T20:00:58.028Z,1.38
2023-01-21T20:03:30.619Z,3.25
2023-01-21T20:06:05.016Z,1.70
2023-01-21T20:08:35.870Z,0.88
2023-01-21T20:11:07.130Z,2.15
2023-01-21T20:13:40.067Z,1.92
2023-01-21T20:16:18.175Z,1.75
2023-01-21T20:18:50.064Z,1.05
2023-01-21T20:21:23.703Z,1.00
2023-01-21T20:23:54.313Z,2.00
2023-01-21T20:26:28.816Z,1.30
2023-01-21T20:29:01.662Z,1.13
2023-01-21T20:31:32.421Z,1.40
2023-01-21T20:34:03.122Z,1.27
2023-01-21T20:36:36.585Z,1.27
2023-01-21T20:39:07.369Z,1.42
2023-01-21T20:41:39.293Z,1.88
2023-01-21T20:44:10.136Z,1.55
2023-01-21T20:46:43.621Z,2.25
2023-01-21T20:49:14.834Z,1.60
2023-01-21T20:51:48.114Z,1.38
2023-01-21T20:54:18.707Z,1.30
2023-01-21T20:56:49.411Z,1.10
2023-01-21T20:59:22.017Z,1.40
2023-01-21T21:01:55.601Z,1.58
2023-01-21T21:04:28.341Z,2.10
2023-01-21T21:07:01.628Z,2.45
2023-01-21T21:09:36.258Z,1.50
2023-01-21T21:12:06.990Z,1.43
2023-01-21T21:14:37.672Z,1.17
2023-01-21T21:17:11.841Z,0.63
2023-01-21T21:19:42.452Z,0.68
2023-01-21T21:22:16.555Z,0.98
2023-01-21T21:24:47.198Z,0.73
2023-01-21T21:27:17.782Z,0.80
2023-01-21T21:29:48.397Z,0.80
2023-01-21T21:32:19.174Z,0.90
2023-01-21T21:34:51.552Z,1.15
2023-01-21T21:37:25.097Z,0.50
2023-01-21T21:39:55.628Z,0.82
2023-01-21T21:42:38.695Z,1.88
2023-01-21T21:45:10.775Z,0.60
2023-01-21T21:47:53.644Z,1.00
2023-01-21T21:50:24.203Z,1.02
2023-01-21T21:52:57.400Z,1.00
2023-01-21T21:55:28.239Z,0.77
2023-01-21T21:57:58.950Z,0.80
2023-01-21T22:00:29.897Z,1.27
2023-01-21T22:03:03.560Z,3.05
2023-01-21T22:05:37.242Z,0.70
2023-01-21T22:08:16.003Z,0.50
2023-01-21T22:10:47.315Z,0.60
2023-01-21T22:13:18.013Z,0.70
2023-01-21T22:15:56.355Z,0.57
2023-01-21T22:18:27.915Z,0.60
2023-01-21T22:21:03.254Z,0.50
2023-01-21T22:28:44.132Z,0.65
2023-01-21T22:31:18.562Z,0.73
2023-01-21T22:33:49.400Z,0.70
2023-01-21T22:36:21.958Z,0.90
2023-01-21T22:38:55.696Z,0.70
2023-01-21T22:41:27.403Z,0.70
2023-01-21T22:43:58.678Z,0.63
2023-01-21T22:46:30.879Z,0.57
2023-01-21T22:49:01.561Z,0.70
2023-01-21T22:51:32.186Z,1.10
2023-01-21T22:54:05.469Z,1.13
2023-01-21T22:56:51.259Z,0.70
2023-01-21T22:59:23.231Z,0.80
2023-01-21T23:01:53.978Z,0.60
2023-01-21T23:04:24.584Z,1.23
2023-01-21T23:06:55.220Z,0.90
2023-01-21T23:09:28.562Z,0.52
2023-01-21T23:11:59.499Z,0.70
2023-01-21T23:14:30.105Z,0.50
2023-01-21T23:17:00.632Z,0.82
2023-01-21T23:19:31.448Z,0.77
2023-01-21T23:22:01.956Z,0.82
2023-01-21T23:24:35.229Z,0.55
2023-01-21T23:27:05.669Z,0.57
2023-01-21T23:29:36.240Z,0.98
2023-01-21T23:32:06.966Z,1.13
2023-01-21T23:34:37.629Z,0.70
2023-01-21T23:37:08.191Z,0.60
2023-01-21T23:39:41.311Z,1.08
2023-01-21T23:42:11.978Z,0.88
2023-01-21T23:44:43.193Z,0.80
2023-01-21T23:47:14.076Z,1.00
2023-01-21T23:49:44.721Z,0.55
2023-01-21T23:52:15.351Z,0.40
2023-01-21T23:54:48.649Z,0.40
2023-01-21T23:57:19.924Z,0.40
2023-01-21T23:59:50.431Z,1.00
